• Join FlightAware (Why Join?)
  • Login
  • US Flag GB Flag 
02:07 EDT


 

Airport Tracker/Info


-or-


 

Live Flight TrackerFlight Track Log ✈ SKW5550 ✈ 28-Aug-2013 ✈ KCOD - KDEN

Flight Track Log - Related Links

Times and Time Zones

All times are in EDT time to prevent confusion due to time zone crossing. See the SKW5550 flight status page for this flight to view local times or setup timezone preferences in your user account.

Time Position Orientation Groundspeed Altitude Reporting Facility
EDT Latitude Longitude Course Direction KTS MPH feet Rate Location/Type
09:29 44.5008 -109.0572 157° South 179 206 6,200  Level Salt Lake Center
09:30 44.4572 -109.0094 142° Southeast 234 269 8,100 1,800 Climbing Salt Lake Center
09:31 44.4100 -108.9367 132° Southeast 242 278 9,900 1,740 Climbing Salt Lake Center
09:32 43.9909 -108.5935 159° South  Level FlightAware Approximate
09:32 44.3575 -108.8508 131° Southeast 262 302 11,700  Level Salt Lake Center
09:33 43.8949 -108.5411 159° South  Level FlightAware Approximate
09:33 44.2744 -108.7667 144° Southeast 293 337 13,800  Level Salt Lake Center
09:34 43.7993 -108.4870 157° South  Level FlightAware Approximate
09:34 44.1947 -108.7219 158° South 305 351 15,700  Level Salt Lake Center
09:35 44.1147 -108.6725 156° South 312 359 17,300 1,320 Climbing Salt Lake Center
09:36 44.0317 -108.6250 158° South 319 367 18,500 1,260 Climbing Salt Lake Center
09:37 43.9461 -108.5775 158° South 328 377 19,900 1,380 Climbing Salt Lake Center
09:38 43.8614 -108.5289 158° South 331 381 21,400 1,200 Climbing Salt Lake Center
09:39 43.7753 -108.4797 158° South 335 386 22,400 900 Climbing Salt Lake Center
09:40 43.6867 -108.4297 158° South 344 396 23,300 720 Climbing Salt Lake Center
09:41 43.5931 -108.3767 158° South 361 415 23,900 600 Climbing Salt Lake Center
09:42 43.4772 -108.3122 158° South 373 429 24,600 600 Climbing Salt Lake Center
09:43 43.3892 -108.2239 144° Southeast 392 451 25,200 600 Climbing Salt Lake Center
09:44 43.3019 -108.1325 143° Southeast 395 455 25,900 600 Climbing Salt Lake Center
09:45 43.2142 -108.0397 142° Southeast 399 459 26,500 540 Climbing Salt Lake Center
09:46 43.1261 -107.9467 142° Southeast 401 461 27,100 540 Climbing Salt Lake Center
09:47 43.0372 -107.8531 142° Southeast 403 464 27,700 540 Climbing Salt Lake Center
09:48 42.9383 -107.7478 142° Southeast 406 467 28,300 480 Climbing Salt Lake Center
09:49 42.8531 -107.6583 142° Southeast 403 464 28,800 480 Climbing Salt Lake Center
09:50 42.7514 -107.5528 143° Southeast 410 472 29,300 480 Climbing Salt Lake Center
09:51 42.6644 -107.4631 143° Southeast 409 471 29,800 480 Climbing Salt Lake Center
09:52 42.5767 -107.3708 142° Southeast 412 474 30,300 480 Climbing Salt Lake Center
09:53 42.4744 -107.2678 143° Southeast 411 473 30,900 300 Climbing Salt Lake Center
09:54 42.3878 -107.1775 142° Southeast 411 473 31,000  Climbing Salt Lake Center
09:55 42.2992 -107.0875 143° Southeast 415 478 31,000  Level Denver Center
09:56 42.2094 -106.9958 143° Southeast 420 483 31,000  Level Denver Center
09:57 42.1189 -106.9081 144° Southeast 418 481 31,000  Level Denver Center
09:58 42.0178 -106.8072 143° Southeast 407 468 31,000  Level Denver Center
09:59 41.9308 -106.7222 144° Southeast 404 465 31,000  Level Denver Center
10:01 41.8131 -106.6056 144° Southeast 412 474 31,000  Level Denver Center
10:02 41.7228 -106.5172 144° Southeast 417 480 31,000  Level Denver Center
10:03 41.6450 -106.4414 144° Southeast 423 487 31,000  Level Denver Center
10:04 41.5239 -106.3228 144° Southeast 423 487 31,000  Level Denver Center
10:05 41.4319 -106.2339 144° Southeast 425 489 31,000  Level Denver Center
10:06 41.3261 -106.1328 144° Southeast 422 486 31,000  Level Denver Center
10:07 41.2358 -106.0458 144° Southeast 420 483 31,000  Level Denver Center
10:08 41.1292 -105.9425 144° Southeast 423 487 31,000  Level Denver Center
10:09 41.0381 -105.8553 144° Southeast 423 487 31,000 -1,080 Level Denver Center
10:10 40.9319 -105.7553 145° Southeast 428 493 28,800 -2,040 Descending Denver Center
10:11 40.8392 -105.6661 144° Southeast 418 481 26,800 -2,040 Descending Denver Center
10:12 40.7506 -105.5806 144° Southeast 400 460 24,700 -2,040 Descending Denver Center
10:13 40.6622 -105.4975 144° Southeast 391 450 22,700 -1,800 Descending Denver Center
10:14 40.5864 -105.4089 138° Southeast 367 422 21,000 -1,620 Descending Denver Center
10:15 40.5297 -105.3039 125° Southeast 352 405 19,500 -1,620 Descending Denver Center
10:16 40.4758 -105.1800 120° Southeast 346 398 17,700 -1,500 Descending Denver Center
10:17 40.4406 -105.0536 110° East 367 422 16,400 -1,320 Descending Denver Center
10:18 40.4072 -104.9344 110° East 353 406 15,000 -1,320 Descending Denver Center
10:19 40.3375 -104.8628 142° Southeast 297 342 13,800 -1,020 Descending Denver Center
10:20 40.2697 -104.8158 152° Southeast 273 314 12,900 -1,200 Descending Denver Center
10:21 40.2028 -104.7708 153° Southeast 253 291 11,400 -1,500 Descending Denver Center
10:22 40.1394 -104.7317 155° Southeast 251 289 9,900 -1,500 Descending Denver Center
10:23 40.0739 -104.6989 159° South 253 291 8,400 -1,200 Descending Denver Center
10:24 40.0028 -104.6950 178° South 235 270 7,500 -1,020 Descending Denver Center
10:25 39.9428 -104.6956 180° South 219 252 6,400 -1,080 Descending Denver Center
10:26 39.9000 -104.6958 180° South 155 178 5,400 -1,020 Descending Denver Center